Terminal Aerodrome Forecast
Issued by NWS

Home | Current Version | Previous Version | Text Only | Print | Product List | Glossary On
Versions: 1 2 3 4 5 6 7 8 9 10 11 12 13 14 15 16 17 18
000
FTUS43 KGRR 202100 AAA
TAFAZO
TAF AMD
KAZO 202131Z 2022/2118 24012G20KT P6SM VCTS BKN040CB
      TEMPO 2022/2024 4SM -SHRA OVC035
     FM210400 27004KT P6SM OVC050
     FM211200 30006KT P6SM OVC015=

USA.gov is the U.S. government's official web portal to all federal, state and local government web resources and services.